createdAt,value
2023-05-13T00:00:17.922Z,9.10
2023-05-13T00:01:20.898Z,9.00
2023-05-13T00:02:22.939Z,4.60
2023-05-13T00:03:26.178Z,9.10
2023-05-13T00:04:28.187Z,9.00
2023-05-13T00:05:31.152Z,9.00
2023-05-13T00:06:33.368Z,9.00
2023-05-13T00:07:36.359Z,9.00
2023-05-13T00:08:38.355Z,9.10
2023-05-13T00:09:41.518Z,9.10
2023-05-13T00:10:44.818Z,9.10
2023-05-13T00:11:47.963Z,9.00
2023-05-13T00:12:49.952Z,9.00
2023-05-13T00:13:52.952Z,9.10
2023-05-13T00:14:55.022Z,9.00
2023-05-13T00:15:57.999Z,9.00
2023-05-13T00:17:02.107Z,9.00
2023-05-13T00:18:05.241Z,9.00
2023-05-13T00:19:07.413Z,9.00
2023-05-13T00:20:10.752Z,9.00
2023-05-13T00:21:12.652Z,9.10
2023-05-13T00:22:15.628Z,9.00
2023-05-13T00:23:17.617Z,9.00
2023-05-13T00:24:20.590Z,9.00
2023-05-13T00:25:22.759Z,9.00
2023-05-13T00:26:27.012Z,9.00
2023-05-13T00:27:28.914Z,9.10
2023-05-13T00:28:31.815Z,9.10
2023-05-13T00:29:33.812Z,9.10
2023-05-13T00:30:36.746Z,9.10
2023-05-13T00:31:39.103Z,9.10
2023-05-13T00:32:42.183Z,9.00
2023-05-13T00:33:44.155Z,9.10
2023-05-13T00:34:47.083Z,9.10
2023-05-13T00:35:49.346Z,9.00
2023-05-13T00:36:52.249Z,9.10
2023-05-13T00:37:54.201Z,9.00
2023-05-13T00:38:57.273Z,9.10
2023-05-13T00:39:59.610Z,9.10
2023-05-13T00:41:03.694Z,9.10
2023-05-13T00:42:07.653Z,9.10
2023-05-13T00:43:10.621Z,9.10
2023-05-13T00:44:14.489Z,9.10
2023-05-13T00:45:17.899Z,9.10
2023-05-13T00:46:19.912Z,9.00
2023-05-13T00:47:23.356Z,9.00
2023-05-13T00:48:25.304Z,9.10
2023-05-13T00:49:28.437Z,9.10
2023-05-13T00:50:30.432Z,9.10
2023-05-13T00:51:33.646Z,9.10
2023-05-13T00:52:36.273Z,9.10
2023-05-13T00:53:41.131Z,9.10
2023-05-13T00:54:43.076Z,9.10
2023-05-13T00:55:47.180Z,9.00
2023-05-13T00:56:49.170Z,9.10
2023-05-13T00:57:53.552Z,9.10
2023-05-13T00:58:55.525Z,9.10
2023-05-13T00:59:58.711Z,9.10
2023-05-13T01:01:11.343Z,9.20
2023-05-13T01:02:21.667Z,9.10
2023-05-13T01:03:31.681Z,9.10
2023-05-13T01:04:43.554Z,9.10
2023-05-13T01:05:55.065Z,9.10
2023-05-13T01:07:06.453Z,9.10
2023-05-13T01:08:17.466Z,9.10
2023-05-13T01:09:29.316Z,9.10
2023-05-13T01:10:38.339Z,9.10
2023-05-13T01:11:42.669Z,9.10
2023-05-13T01:12:46.379Z,9.10
2023-05-13T01:13:56.513Z,9.10
2023-05-13T01:15:04.925Z,9.10
2023-05-13T01:16:14.868Z,9.10
2023-05-13T01:17:20.708Z,9.10
2023-05-13T01:18:29.233Z,9.10
2023-05-13T01:19:39.267Z,9.20
2023-05-13T01:20:43.782Z,9.30
2023-05-13T01:21:53.895Z,9.20
2023-05-13T01:22:57.080Z,9.20
2023-05-13T01:23:59.468Z,9.20
2023-05-13T01:25:02.472Z,9.20
2023-05-13T01:27:08.621Z,9.20
2023-05-13T01:28:10.634Z,9.30
2023-05-13T01:29:13.811Z,9.30
2023-05-13T01:30:16.221Z,9.30
2023-05-13T01:31:21.621Z,9.40
2023-05-13T01:32:24.454Z,9.30
2023-05-13T01:33:27.973Z,9.20
2023-05-13T01:34:31.265Z,9.30
2023-05-13T01:35:34.660Z,9.30
2023-05-13T01:36:37.193Z,9.30
2023-05-13T01:37:42.694Z,9.30
2023-05-13T01:38:45.181Z,9.30
2023-05-13T01:39:48.586Z,9.30
2023-05-13T01:40:51.264Z,9.30
2023-05-13T01:41:54.238Z,9.30
2023-05-13T01:42:56.397Z,9.30
2023-05-13T01:43:59.423Z,9.40
2023-05-13T01:45:01.407Z,9.40
2023-05-13T01:46:04.512Z,9.30
2023-05-13T01:47:06.940Z,9.30
2023-05-13T01:48:09.867Z,9.30
2023-05-13T01:49:11.867Z,9.30
2023-05-13T01:50:14.793Z,9.30
2023-05-13T01:51:16.709Z,9.20
2023-05-13T01:52:19.679Z,9.30
2023-05-13T01:53:23.365Z,9.30
2023-05-13T01:54:26.672Z,9.30
2023-05-13T01:55:28.585Z,9.30
2023-05-13T01:56:31.570Z,9.30
2023-05-13T01:57:33.563Z,9.30
2023-05-13T01:58:36.513Z,9.30
2023-05-13T01:59:38.568Z,9.30
2023-05-13T02:00:41.573Z,9.30
2023-05-13T02:01:45.026Z,9.40
2023-05-13T02:02:48.120Z,9.40
2023-05-13T02:03:50.421Z,9.30
2023-05-13T02:04:53.406Z,9.30
2023-05-13T02:05:55.804Z,9.30
2023-05-13T02:06:58.729Z,9.40
2023-05-13T02:08:00.683Z,9.40
2023-05-13T02:09:05.060Z,9.30
2023-05-13T02:10:07.734Z,9.30
2023-05-13T02:11:10.661Z,9.30
2023-05-13T02:12:12.557Z,9.30
2023-05-13T02:13:15.485Z,9.30
2023-05-13T02:14:17.453Z,9.30
2023-05-13T02:15:20.606Z,9.30
2023-05-13T02:16:22.648Z,9.40
2023-05-13T02:17:25.924Z,9.30
2023-05-13T02:18:28.035Z,9.40
2023-05-13T02:19:31.005Z,9.30
2023-05-13T02:20:32.922Z,9.30
2023-05-13T02:21:35.891Z,9.40
2023-05-13T02:22:37.822Z,9.40
2023-05-13T02:23:40.750Z,9.40
2023-05-13T02:24:44.042Z,9.40
2023-05-13T02:25:47.002Z,9.40
2023-05-13T02:26:49.006Z,9.40
2023-05-13T02:27:52.054Z,9.40
2023-05-13T02:28:53.962Z,9.30
2023-05-13T02:29:56.848Z,9.40
2023-05-13T02:30:58.770Z,9.30
2023-05-13T02:32:01.922Z,9.30
2023-05-13T02:33:04.098Z,9.30
2023-05-13T02:34:07.166Z,9.40
2023-05-13T02:35:09.717Z,9.30
2023-05-13T02:36:12.662Z,9.40
2023-05-13T02:37:14.612Z,9.40
2023-05-13T02:38:17.548Z,9.40
2023-05-13T02:39:19.469Z,9.40
2023-05-13T02:40:23.883Z,9.40
2023-05-13T02:41:25.864Z,9.40
2023-05-13T02:42:28.805Z,9.40
2023-05-13T02:43:31.171Z,9.40
2023-05-13T02:44:34.137Z,9.40
2023-05-13T02:45:36.145Z,9.40
2023-05-13T02:46:39.082Z,9.30
2023-05-13T02:47:41.064Z,9.30
2023-05-13T02:48:44.128Z,9.30
2023-05-13T02:49:46.103Z,9.40
2023-05-13T02:50:49.037Z,9.40
2023-05-13T02:51:50.981Z,9.40
2023-05-13T02:52:54.013Z,9.40
2023-05-13T02:53:55.916Z,9.40
2023-05-13T02:54:58.902Z,9.40
2023-05-13T02:56:02.233Z,9.40
2023-05-13T02:57:05.648Z,9.40
2023-05-13T02:58:09.117Z,9.40
2023-05-13T02:59:12.213Z,9.40
2023-05-13T03:00:15.371Z,9.40
2023-05-13T03:01:18.337Z,9.40
2023-05-13T03:02:20.908Z,9.40
2023-05-13T03:03:24.026Z,9.40
2023-05-13T03:04:26.185Z,9.40
2023-05-13T03:05:29.965Z,9.40
2023-05-13T03:06:32.167Z,9.40
2023-05-13T03:07:35.230Z,9.40
2023-05-13T03:08:37.255Z,9.40
2023-05-13T03:09:42.220Z,9.50
2023-05-13T03:10:44.287Z,9.40
2023-05-13T03:11:48.882Z,9.50
2023-05-13T03:12:50.996Z,9.50
2023-05-13T03:13:53.980Z,9.40
2023-05-13T03:14:56.000Z,9.40
2023-05-13T03:15:58.937Z,9.40
2023-05-13T03:17:00.945Z,9.40
2023-05-13T03:18:03.901Z,9.40
2023-05-13T03:19:06.062Z,9.40
2023-05-13T03:20:10.275Z,9.40
2023-05-13T03:21:12.308Z,9.50
2023-05-13T03:22:15.483Z,9.40
2023-05-13T03:23:17.492Z,9.50
2023-05-13T03:25:22.726Z,9.40
2023-05-13T03:26:26.806Z,9.40
2023-05-13T03:27:30.062Z,9.50
2023-05-13T03:28:32.966Z,9.50
2023-05-13T03:29:34.892Z,9.50
2023-05-13T03:30:37.842Z,9.50
2023-05-13T03:31:39.824Z,9.50
2023-05-13T03:32:42.800Z,9.50
2023-05-13T03:33:44.772Z,9.50
2023-05-13T03:34:47.735Z,9.50
2023-05-13T03:35:49.902Z,9.60
2023-05-13T03:36:52.935Z,9.50
2023-05-13T03:38:58.146Z,9.60
2023-05-13T03:40:00.224Z,9.50
2023-05-13T03:41:03.427Z,9.60
2023-05-13T03:42:05.982Z,9.50
2023-05-13T03:43:10.370Z,9.60
2023-05-13T03:44:12.343Z,9.50
2023-05-13T03:45:15.299Z,9.60
2023-05-13T03:46:17.240Z,9.70
2023-05-13T03:47:20.217Z,9.60
2023-05-13T03:48:22.195Z,9.60
2023-05-13T03:49:25.227Z,9.50
2023-05-13T03:50:27.413Z,9.50
2023-05-13T03:51:31.110Z,9.50
2023-05-13T03:52:33.087Z,9.60
2023-05-13T03:53:36.003Z,9.60
2023-05-13T03:54:37.931Z,9.60
2023-05-13T03:55:41.080Z,9.60
2023-05-13T03:56:43.001Z,9.60
2023-05-13T03:57:50.676Z,9.70
2023-05-13T03:58:53.984Z,9.60
2023-05-13T03:59:56.965Z,9.60
2023-05-13T04:00:58.907Z,9.60
2023-05-13T04:02:01.897Z,9.60
2023-05-13T04:03:04.507Z,9.60
2023-05-13T04:04:07.559Z,9.60
2023-05-13T04:05:10.107Z,9.60
2023-05-13T04:06:13.988Z,9.50
2023-05-13T04:07:15.943Z,9.60
2023-05-13T04:08:19.230Z,9.60
2023-05-13T04:09:21.401Z,9.60
2023-05-13T04:10:24.393Z,9.60
2023-05-13T04:11:26.383Z,9.50
2023-05-13T04:12:30.879Z,9.60
2023-05-13T04:13:34.451Z,9.60
2023-05-13T04:14:38.740Z,9.70
2023-05-13T04:15:40.777Z,9.60
2023-05-13T04:16:43.817Z,9.60
2023-05-13T04:17:46.086Z,9.70
2023-05-13T04:18:49.056Z,9.60
2023-05-13T04:19:53.001Z,9.60
2023-05-13T04:20:55.989Z,9.70
2023-05-13T04:21:57.950Z,9.70
2023-05-13T04:23:01.633Z,9.60
2023-05-13T04:24:03.835Z,9.70
2023-05-13T04:25:07.405Z,9.70
2023-05-13T04:26:09.409Z,9.70
2023-05-13T04:27:12.448Z,9.70
2023-05-13T04:28:14.356Z,9.70
2023-05-13T04:29:18.060Z,9.70
2023-05-13T04:30:21.856Z,9.70
2023-05-13T04:31:25.043Z,9.70
2023-05-13T04:32:27.092Z,9.70
2023-05-13T04:33:29.990Z,9.70
2023-05-13T04:34:31.948Z,9.70
2023-05-13T04:35:34.880Z,9.70
2023-05-13T04:36:37.082Z,9.70
2023-05-13T04:37:40.055Z,9.80
2023-05-13T04:38:42.032Z,9.70
2023-05-13T04:39:46.840Z,9.70
2023-05-13T04:40:48.806Z,9.70
2023-05-13T04:41:51.767Z,9.70
2023-05-13T04:42:55.098Z,9.80
2023-05-13T04:43:58.449Z,9.70
2023-05-13T04:45:00.442Z,9.80
2023-05-13T04:46:04.782Z,9.80
2023-05-13T04:47:07.178Z,9.80
2023-05-13T04:48:10.276Z,9.80
2023-05-13T04:49:12.385Z,9.90
2023-05-13T04:50:15.967Z,9.80
2023-05-13T04:51:18.160Z,9.90
2023-05-13T04:52:21.542Z,9.90
2023-05-13T04:53:23.454Z,9.90
2023-05-13T04:54:26.420Z,9.90
2023-05-13T04:55:28.429Z,10.00
2023-05-13T04:56:31.361Z,10.00
2023-05-13T04:57:33.522Z,9.90
2023-05-13T04:58:36.439Z,10.00
2023-05-13T04:59:38.360Z,10.00
2023-05-13T05:00:41.274Z,10.00
2023-05-13T05:01:44.621Z,10.10
2023-05-13T05:02:47.633Z,10.00
2023-05-13T05:03:49.608Z,10.00
2023-05-13T05:04:52.583Z,10.10
2023-05-13T05:05:54.489Z,10.10
2023-05-13T05:06:57.453Z,10.20
2023-05-13T05:07:59.420Z,10.10
2023-05-13T05:09:02.343Z,10.20
2023-05-13T05:10:04.845Z,10.20
2023-05-13T05:11:07.859Z,10.20
2023-05-13T05:12:09.828Z,10.20
2023-05-13T05:13:12.765Z,10.20
2023-05-13T05:14:14.703Z,10.20
2023-05-13T05:15:17.620Z,10.20
2023-05-13T05:16:19.622Z,10.20
2023-05-13T05:17:24.128Z,10.20
2023-05-13T05:18:26.216Z,10.20
2023-05-13T05:19:29.236Z,10.30
2023-05-13T05:20:31.298Z,10.30
2023-05-13T05:21:34.280Z,10.30
2023-05-13T05:22:36.698Z,10.30
2023-05-13T05:23:39.833Z,10.30
2023-05-13T05:24:41.819Z,10.30
2023-05-13T05:25:45.002Z,10.30
2023-05-13T05:26:46.986Z,10.40
2023-05-13T05:27:49.886Z,10.40
2023-05-13T05:28:51.776Z,10.40
2023-05-13T05:29:54.706Z,10.40
2023-05-13T05:30:56.851Z,10.50
2023-05-13T05:31:59.880Z,10.50
2023-05-13T05:33:03.319Z,10.50
2023-05-13T05:34:06.352Z,10.50
2023-05-13T05:35:09.144Z,10.50
2023-05-13T05:36:12.086Z,10.50
2023-05-13T05:37:13.986Z,10.40
2023-05-13T05:38:16.880Z,10.50
2023-05-13T05:39:18.986Z,10.40
2023-05-13T05:40:22.444Z,10.60
2023-05-13T05:41:24.985Z,10.50
2023-05-13T05:42:27.870Z,10.50
2023-05-13T05:43:30.626Z,10.50
2023-05-13T05:44:33.612Z,10.50
2023-05-13T05:45:35.914Z,10.50
2023-05-13T05:46:38.893Z,10.60
2023-05-13T05:47:40.881Z,10.60
2023-05-13T05:48:45.382Z,10.60
2023-05-13T05:49:47.318Z,10.60
2023-05-13T05:50:50.285Z,10.50
2023-05-13T05:51:52.275Z,10.60
2023-05-13T05:52:55.438Z,10.60
2023-05-13T05:53:57.350Z,10.60
2023-05-13T05:55:00.254Z,10.60
2023-05-13T05:56:02.207Z,10.60
2023-05-13T05:57:05.607Z,10.60
2023-05-13T05:58:10.174Z,10.60
2023-05-13T05:59:13.079Z,10.70
2023-05-13T06:00:15.712Z,10.60
2023-05-13T06:01:18.617Z,10.60
2023-05-13T06:02:20.741Z,10.60
2023-05-13T06:03:24.204Z,10.60
2023-05-13T06:04:27.685Z,10.70
2023-05-13T06:05:30.653Z,10.70
2023-05-13T06:06:33.103Z,10.70
2023-05-13T06:07:36.083Z,10.70
2023-05-13T06:08:37.991Z,10.70
2023-05-13T06:09:41.031Z,10.70
2023-05-13T06:10:43.804Z,10.80
2023-05-13T06:11:46.818Z,10.80
2023-05-13T06:12:48.832Z,10.80
2023-05-13T06:13:52.100Z,10.90
2023-05-13T06:14:54.060Z,10.90
2023-05-13T06:15:57.071Z,11.00
2023-05-13T06:16:59.151Z,11.10
2023-05-13T06:18:05.532Z,11.20
2023-05-13T06:19:07.662Z,11.30
2023-05-13T06:20:13.280Z,11.50
2023-05-13T06:21:16.273Z,11.50
2023-05-13T06:22:18.299Z,11.60
2023-05-13T06:23:21.279Z,11.60
2023-05-13T06:24:23.223Z,11.70
2023-05-13T06:25:26.155Z,11.70
2023-05-13T06:26:28.114Z,11.80
2023-05-13T06:27:31.172Z,11.90
2023-05-13T06:28:33.070Z,11.90
2023-05-13T06:29:36.039Z,11.90
2023-05-13T06:30:38.608Z,11.90
2023-05-13T06:31:41.843Z,11.90
2023-05-13T06:33:00.356Z,12.00
2023-05-13T06:34:04.303Z,12.00
2023-05-13T06:35:07.851Z,12.10
2023-05-13T06:36:11.162Z,12.10
2023-05-13T06:37:14.631Z,12.20
2023-05-13T06:38:17.800Z,12.20
2023-05-13T06:39:20.787Z,12.20
2023-05-13T06:40:23.066Z,12.30
2023-05-13T06:41:26.211Z,12.20
2023-05-13T06:42:28.167Z,12.20
2023-05-13T06:43:32.183Z,12.20
2023-05-13T06:44:34.207Z,12.30
2023-05-13T06:45:37.235Z,12.30
2023-05-13T06:46:39.351Z,12.40
2023-05-13T06:47:42.320Z,12.30
2023-05-13T06:48:44.314Z,12.30
2023-05-13T06:49:47.232Z,12.30
2023-05-13T06:50:49.817Z,12.50
2023-05-13T06:51:54.124Z,12.30
2023-05-13T06:52:56.074Z,12.30
2023-05-13T06:53:59.065Z,12.40
2023-05-13T06:55:02.828Z,12.40
2023-05-13T06:56:06.177Z,12.40
2023-05-13T06:57:08.222Z,12.40
2023-05-13T06:58:11.919Z,12.50
2023-05-13T06:59:13.958Z,12.40
2023-05-13T07:00:17.818Z,12.40
2023-05-13T07:01:19.961Z,12.40
2023-05-13T07:02:22.911Z,12.40
2023-05-13T07:03:24.885Z,12.40
2023-05-13T07:04:29.361Z,12.40
2023-05-13T07:05:31.475Z,12.40
2023-05-13T07:06:34.525Z,12.50
2023-05-13T07:07:37.855Z,12.50
2023-05-13T07:08:40.884Z,12.50
2023-05-13T07:09:42.880Z,12.50
2023-05-13T07:10:46.029Z,12.50
2023-05-13T07:11:48.007Z,12.50
2023-05-13T07:12:50.984Z,12.50
2023-05-13T07:13:53.881Z,12.50
2023-05-13T07:14:55.874Z,12.50
2023-05-13T07:15:58.774Z,12.50
2023-05-13T07:17:00.806Z,12.50
2023-05-13T07:18:03.890Z,12.60
2023-05-13T07:19:05.952Z,12.60
2023-05-13T07:20:10.056Z,12.60
2023-05-13T07:21:14.173Z,12.60
2023-05-13T07:22:16.104Z,12.60
2023-05-13T07:23:20.407Z,12.60
2023-05-13T07:24:22.406Z,12.60
2023-05-13T07:25:25.290Z,12.60
2023-05-13T07:26:27.247Z,12.60
2023-05-13T07:27:30.236Z,12.60
2023-05-13T07:28:32.180Z,12.70
2023-05-13T07:29:35.138Z,12.60
2023-05-13T07:30:39.447Z,12.60
2023-05-13T07:31:42.455Z,12.70
2023-05-13T07:32:44.529Z,12.70
2023-05-13T07:33:47.458Z,12.70
2023-05-13T07:34:49.404Z,12.70
2023-05-13T07:35:52.405Z,12.70
2023-05-13T07:36:54.440Z,12.70
2023-05-13T07:37:57.352Z,12.80
2023-05-13T07:39:02.202Z,12.80
2023-05-13T07:40:06.623Z,12.80
2023-05-13T07:41:08.614Z,12.80
2023-05-13T07:42:11.606Z,12.80
2023-05-13T07:43:14.064Z,12.80
2023-05-13T07:44:17.055Z,12.80
2023-05-13T07:45:19.043Z,12.90
2023-05-13T07:46:22.198Z,12.90
2023-05-13T07:47:24.324Z,12.90
2023-05-13T07:48:29.450Z,12.90
2023-05-13T07:49:31.386Z,12.90
2023-05-13T07:50:34.341Z,12.90
2023-05-13T07:51:38.204Z,12.90
2023-05-13T07:52:41.182Z,12.90
2023-05-13T07:53:43.316Z,12.90
2023-05-13T07:54:47.625Z,13.00
2023-05-13T07:55:50.832Z,12.90
2023-05-13T07:56:52.746Z,12.90
2023-05-13T07:57:55.672Z,12.90
2023-05-13T07:58:58.176Z,13.00
2023-05-13T08:00:01.156Z,12.90
2023-05-13T08:01:05.074Z,12.90
2023-05-13T08:02:08.383Z,12.90
2023-05-13T08:03:10.421Z,12.90
2023-05-13T08:04:13.526Z,12.90
2023-05-13T08:05:16.586Z,12.90
2023-05-13T08:06:18.502Z,12.90
2023-05-13T08:07:21.477Z,13.00
2023-05-13T08:08:23.507Z,13.00
2023-05-13T08:09:26.403Z,13.00
2023-05-13T08:10:30.438Z,13.00
2023-05-13T08:11:33.534Z,13.00
2023-05-13T08:12:35.515Z,13.00
2023-05-13T08:13:38.536Z,13.00
2023-05-13T08:14:40.468Z,13.00
2023-05-13T08:15:43.758Z,13.00
2023-05-13T08:16:45.771Z,13.00
2023-05-13T08:17:49.097Z,13.00
2023-05-13T08:18:51.248Z,13.00
2023-05-13T08:19:54.322Z,13.00
2023-05-13T08:20:56.303Z,13.00
2023-05-13T08:21:59.249Z,13.00
2023-05-13T08:23:01.976Z,13.00
2023-05-13T08:24:05.100Z,13.00
2023-05-13T08:25:07.420Z,13.00
2023-05-13T08:26:11.827Z,13.00
2023-05-13T08:27:13.836Z,13.00
2023-05-13T08:28:16.793Z,13.00
2023-05-13T08:29:18.693Z,13.00
2023-05-13T08:30:21.706Z,13.00
2023-05-13T08:31:25.188Z,13.00
2023-05-13T08:32:28.220Z,13.00
2023-05-13T08:33:30.491Z,13.00
2023-05-13T08:34:33.515Z,13.00
2023-05-13T08:35:35.505Z,15.20
2023-05-13T08:36:38.438Z,13.00
2023-05-13T08:37:40.353Z,13.00
2023-05-13T08:38:43.847Z,13.00
2023-05-13T08:39:45.926Z,13.00
2023-05-13T08:40:49.072Z,13.00
2023-05-13T08:41:56.872Z,13.00
2023-05-13T08:43:02.638Z,13.00
2023-05-13T08:44:06.757Z,13.00
2023-05-13T08:45:11.994Z,13.00
2023-05-13T08:46:17.137Z,13.00
2023-05-13T08:47:32.871Z,13.00
2023-05-13T08:48:36.981Z,13.00
2023-05-13T08:49:40.307Z,13.00
2023-05-13T08:50:42.669Z,13.00
2023-05-13T08:51:46.603Z,13.00
2023-05-13T08:52:51.824Z,13.00
2023-05-13T08:53:56.057Z,13.00
2023-05-13T08:55:00.332Z,13.00
2023-05-13T08:56:04.248Z,13.00
2023-05-13T08:57:07.633Z,13.00
2023-05-13T08:58:10.590Z,13.30
2023-05-13T08:59:12.580Z,14.50
2023-05-13T09:00:17.061Z,13.00
2023-05-13T09:01:20.395Z,13.00
2023-05-13T09:02:24.130Z,13.00
2023-05-13T09:03:28.134Z,13.00
2023-05-13T09:04:31.239Z,13.00
2023-05-13T09:05:35.734Z,13.00
2023-05-13T09:06:40.749Z,13.00
2023-05-13T09:07:42.673Z,13.00
2023-05-13T09:08:45.887Z,13.00
2023-05-13T09:09:48.076Z,13.00
2023-05-13T09:10:51.377Z,13.00
2023-05-13T09:11:53.282Z,13.00
2023-05-13T09:12:57.624Z,13.00
2023-05-13T09:14:00.412Z,13.00
2023-05-13T09:15:03.352Z,13.00
2023-05-13T09:16:10.624Z,13.00
2023-05-13T09:17:13.843Z,13.00
2023-05-13T09:18:18.580Z,13.00
2023-05-13T09:19:21.995Z,13.00
2023-05-13T09:20:25.915Z,13.00
2023-05-13T09:21:31.793Z,13.00
2023-05-13T09:22:33.853Z,13.00
2023-05-13T09:23:37.523Z,13.00
2023-05-13T09:24:39.862Z,13.00
2023-05-13T09:25:42.902Z,13.00
2023-05-13T09:26:45.768Z,13.00
2023-05-13T09:27:50.152Z,13.00
2023-05-13T09:29:14.971Z,13.00
2023-05-13T09:30:17.941Z,13.00
2023-05-13T09:31:33.059Z,13.10
2023-05-13T09:32:36.053Z,13.10
2023-05-13T09:33:39.006Z,13.10
2023-05-13T09:34:43.915Z,13.10
2023-05-13T09:35:49.960Z,13.10
2023-05-13T09:36:57.603Z,13.10
2023-05-13T09:37:59.677Z,13.10
2023-05-13T09:39:04.592Z,13.10
2023-05-13T09:40:10.709Z,13.10
2023-05-13T09:41:13.678Z,13.10
2023-05-13T09:42:16.738Z,13.10
2023-05-13T09:43:21.044Z,13.10
2023-05-13T09:44:24.608Z,13.10
2023-05-13T09:45:27.891Z,13.10
2023-05-13T09:46:32.300Z,13.10
2023-05-13T09:47:37.003Z,13.10
2023-05-13T09:48:43.191Z,10.50
2023-05-13T09:49:54.098Z,13.10
2023-05-13T09:50:57.984Z,13.10
2023-05-13T09:52:01.070Z,13.10
2023-05-13T09:53:11.226Z,13.10
2023-05-13T09:54:14.175Z,13.10
2023-05-13T09:55:16.448Z,13.10
2023-05-13T09:56:23.851Z,13.10
2023-05-13T09:57:28.515Z,13.20
2023-05-13T09:58:31.506Z,13.10
2023-05-13T09:59:35.096Z,13.10
2023-05-13T10:00:39.397Z,13.10
2023-05-13T10:01:42.698Z,13.10
2023-05-13T10:02:45.871Z,13.10
2023-05-13T10:03:48.299Z,13.10
2023-05-13T10:04:51.937Z,13.10
2023-05-13T10:05:55.177Z,13.10
2023-05-13T10:06:58.317Z,13.10
2023-05-13T10:08:02.720Z,13.10
2023-05-13T10:09:06.820Z,13.10
2023-05-13T10:10:11.569Z,13.10
2023-05-13T10:11:15.718Z,13.20
2023-05-13T10:12:22.193Z,13.20
2023-05-13T10:13:25.401Z,13.20
2023-05-13T10:14:28.547Z,13.20
2023-05-13T10:15:32.615Z,13.20
2023-05-13T10:16:36.087Z,13.20
2023-05-13T10:17:38.618Z,13.20
2023-05-13T10:18:41.903Z,13.10
2023-05-13T10:19:44.404Z,13.20
2023-05-13T10:20:48.004Z,13.20
2023-05-13T10:21:50.382Z,13.20
2023-05-13T10:22:53.552Z,13.20
2023-05-13T10:23:56.757Z,13.20
2023-05-13T10:25:01.086Z,13.20
2023-05-13T10:26:03.428Z,13.20
2023-05-13T10:27:08.334Z,13.20
2023-05-13T10:28:10.756Z,13.20
2023-05-13T10:29:14.211Z,13.20
2023-05-13T10:30:17.736Z,13.20
2023-05-13T10:31:22.170Z,13.20
2023-05-13T10:32:26.505Z,13.20
2023-05-13T10:33:29.663Z,13.20
2023-05-13T10:34:33.817Z,13.20
2023-05-13T10:35:42.113Z,13.20
2023-05-13T10:37:03.727Z,13.20
2023-05-13T10:38:10.662Z,13.20
2023-05-13T10:39:27.653Z,13.20
2023-05-13T10:40:57.550Z,13.20
2023-05-13T10:42:37.124Z,13.20
2023-05-13T10:43:40.423Z,13.20
2023-05-13T10:44:42.964Z,13.20
2023-05-13T10:45:47.337Z,13.20
2023-05-13T10:46:50.833Z,13.30
2023-05-13T10:47:56.134Z,13.30
2023-05-13T10:49:00.323Z,13.30
2023-05-13T10:50:07.481Z,13.20
2023-05-13T10:51:14.975Z,13.20
2023-05-13T10:52:16.949Z,13.20
2023-05-13T10:53:23.392Z,13.30
2023-05-13T10:54:25.454Z,13.30
2023-05-13T10:55:29.195Z,13.30
2023-05-13T10:56:31.157Z,13.30
2023-05-13T10:57:38.402Z,13.30
2023-05-13T10:58:41.405Z,13.30
2023-05-13T11:00:16.291Z,13.30
2023-05-13T11:01:20.640Z,13.20
2023-05-13T11:02:24.629Z,13.30
2023-05-13T11:03:30.163Z,13.30
2023-05-13T11:04:33.208Z,13.30
2023-05-13T11:05:35.168Z,13.30
2023-05-13T11:06:40.802Z,13.30
2023-05-13T11:07:54.986Z,13.30
2023-05-13T11:08:57.899Z,13.40
2023-05-13T11:10:00.286Z,13.40
2023-05-13T11:11:03.680Z,13.40
2023-05-13T11:12:07.446Z,13.40
2023-05-13T11:13:22.235Z,13.40
2023-05-13T11:14:26.715Z,13.50
2023-05-13T11:15:43.673Z,13.50
2023-05-13T11:16:48.795Z,13.50
2023-05-13T11:17:54.346Z,13.50
2023-05-13T11:18:57.452Z,13.60
2023-05-13T11:20:00.005Z,13.60
2023-05-13T11:21:05.376Z,13.60
2023-05-13T11:22:11.190Z,13.60
2023-05-13T11:23:17.777Z,13.60
2023-05-13T11:24:21.668Z,13.70
2023-05-13T11:25:27.417Z,13.60
2023-05-13T11:26:45.645Z,13.60
2023-05-13T11:27:47.698Z,13.60
2023-05-13T11:29:04.613Z,13.60
2023-05-13T11:30:09.187Z,13.60
2023-05-13T11:31:16.739Z,13.60
2023-05-13T11:32:53.795Z,13.60
2023-05-13T11:34:11.011Z,13.60
2023-05-13T11:35:15.101Z,13.70
2023-05-13T11:36:17.198Z,13.70
2023-05-13T11:37:20.358Z,13.70
2023-05-13T11:38:24.711Z,13.80
2023-05-13T11:39:27.686Z,13.80
2023-05-13T11:40:30.759Z,13.80
2023-05-13T11:41:34.285Z,13.70
2023-05-13T11:42:38.878Z,13.80
2023-05-13T11:43:42.427Z,13.70
2023-05-13T11:44:48.990Z,13.70
2023-05-13T11:45:51.582Z,13.70
2023-05-13T11:46:56.145Z,13.80
2023-05-13T11:47:59.081Z,13.80
2023-05-13T11:49:02.298Z,13.70
2023-05-13T11:50:19.489Z,13.80
2023-05-13T11:51:21.515Z,13.80
2023-05-13T11:52:24.493Z,13.80
2023-05-13T11:53:26.476Z,13.80
2023-05-13T11:54:29.720Z,13.90
2023-05-13T11:55:34.558Z,13.90
2023-05-13T11:56:37.006Z,13.90
2023-05-13T11:57:40.736Z,13.90
2023-05-13T11:58:42.720Z,14.00
2023-05-13T12:00:01.654Z,14.00
2023-05-13T12:01:03.568Z,13.90
2023-05-13T12:02:06.555Z,14.00
2023-05-13T12:03:13.215Z,14.00
2023-05-13T12:04:15.227Z,14.00
2023-05-13T12:05:19.701Z,14.10
2023-05-13T12:06:21.766Z,14.10
2023-05-13T12:07:25.639Z,14.10
2023-05-13T12:08:27.584Z,14.10
2023-05-13T12:09:30.667Z,14.10
2023-05-13T12:10:32.654Z,14.10
2023-05-13T12:11:36.205Z,14.00
2023-05-13T12:12:39.391Z,14.10
2023-05-13T12:13:42.808Z,14.10
2023-05-13T12:14:46.311Z,14.10
2023-05-13T12:15:50.734Z,14.10
2023-05-13T12:16:53.310Z,14.10
2023-05-13T12:17:58.050Z,14.00
2023-05-13T12:19:00.758Z,14.00
2023-05-13T12:20:11.924Z,14.00
2023-05-13T12:21:17.240Z,14.00
2023-05-13T12:22:22.959Z,13.90
2023-05-13T12:23:25.944Z,13.90
2023-05-13T12:24:33.052Z,13.90
2023-05-13T12:25:41.392Z,13.90
2023-05-13T12:26:44.410Z,13.90
2023-05-13T12:27:51.959Z,13.80
2023-05-13T12:28:59.264Z,13.80
2023-05-13T12:30:01.214Z,13.80
2023-05-13T12:31:05.752Z,13.80
2023-05-13T12:32:08.570Z,13.80
2023-05-13T12:33:18.120Z,13.80
2023-05-13T12:34:31.937Z,13.80
2023-05-13T12:35:33.979Z,13.80
2023-05-13T12:36:40.104Z,13.80
2023-05-13T12:37:42.485Z,13.80
2023-05-13T12:39:00.394Z,13.70
2023-05-13T12:40:13.194Z,13.80
2023-05-13T12:41:16.156Z,13.70
2023-05-13T12:42:18.585Z,13.80
2023-05-13T12:43:21.684Z,13.70
2023-05-13T12:44:25.999Z,13.70
2023-05-13T12:45:29.959Z,13.70
2023-05-13T12:46:33.021Z,13.70
2023-05-13T12:47:48.902Z,13.70
2023-05-13T12:48:54.835Z,13.70
2023-05-13T12:49:58.419Z,13.70
2023-05-13T12:51:02.427Z,13.70
2023-05-13T12:52:06.404Z,13.70
2023-05-13T12:53:09.316Z,13.70
2023-05-13T12:54:11.977Z,13.70
2023-05-13T12:55:15.098Z,13.70
2023-05-13T12:56:17.130Z,13.70
2023-05-13T12:57:20.567Z,13.70
2023-05-13T12:58:22.677Z,13.70
2023-05-13T12:59:29.285Z,13.70
2023-05-13T13:00:31.610Z,13.70
2023-05-13T13:01:34.703Z,13.70
2023-05-13T13:02:36.943Z,13.70
2023-05-13T13:03:40.058Z,13.70
2023-05-13T13:04:42.078Z,13.70
2023-05-13T13:05:45.098Z,13.70
2023-05-13T13:06:48.039Z,13.70
2023-05-13T13:07:51.507Z,13.70
2023-05-13T13:08:54.458Z,13.70
2023-05-13T13:09:56.979Z,13.70
2023-05-13T13:11:00.571Z,13.70
2023-05-13T13:12:02.610Z,13.70
2023-05-13T13:13:05.552Z,13.70
2023-05-13T13:14:08.348Z,13.70
2023-05-13T13:15:12.267Z,13.70
2023-05-13T13:16:15.387Z,13.70
2023-05-13T13:17:17.315Z,13.80
2023-05-13T13:18:20.229Z,13.70
2023-05-13T13:19:22.223Z,13.80
2023-05-13T13:20:25.346Z,13.80
2023-05-13T13:21:28.380Z,13.80
2023-05-13T13:22:30.388Z,13.80
2023-05-13T13:23:34.842Z,13.80
2023-05-13T13:24:36.929Z,13.70
2023-05-13T13:25:40.185Z,13.80
2023-05-13T13:26:42.099Z,13.80
2023-05-13T13:27:45.156Z,13.80
2023-05-13T13:28:47.160Z,13.80
2023-05-13T13:29:50.249Z,13.80
2023-05-13T13:30:52.463Z,13.80
2023-05-13T13:31:55.424Z,13.80
2023-05-13T13:32:57.389Z,13.80
2023-05-13T13:34:04.471Z,13.80
2023-05-13T13:35:08.337Z,13.80
2023-05-13T13:36:10.346Z,13.80
2023-05-13T13:37:13.263Z,13.80
2023-05-13T13:38:15.217Z,13.80
2023-05-13T13:39:19.564Z,13.80
2023-05-13T13:40:21.845Z,13.80
2023-05-13T13:41:25.833Z,13.80
2023-05-13T13:42:40.191Z,13.80
2023-05-13T13:43:46.825Z,13.80
2023-05-13T13:44:49.026Z,13.80
2023-05-13T13:45:52.070Z,13.80
2023-05-13T13:46:54.047Z,13.80
2023-05-13T13:48:59.953Z,13.80
2023-05-13T13:50:03.915Z,13.80
2023-05-13T13:51:06.135Z,13.80
2023-05-13T13:52:10.785Z,13.80
2023-05-13T13:53:12.702Z,13.80
2023-05-13T13:54:15.619Z,13.80
2023-05-13T13:55:19.277Z,13.80